Terminal Aerodrome Forecast
Issued by NWS

Home | Current Version | Previous Version | Text Only | Print | Product List | Glossary On
Versions: 1 2 3 4 5 6 7 8 9 10 11 12 13
000
FTUS45 KABQ 231143
TAFFMN
TAF
KFMN 231143Z 2312/2412 VRB05KT P6SM VCTS BKN080CB
     FM231500 17010G18KT P6SM VCSH BKN060
     FM231800 20015G25KT P6SM VCTS BKN060CB
      TEMPO 2318/2321 6SM -TSRA OVC050CB
     FM232100 20015G25KT P6SM VCSH SCT080
     FM240000 VRB06KT P6SM SKC=

USA.gov is the U.S. government's official web portal to all federal, state and local government web resources and services.